createdAt,value
2023-03-24T00:01:07.791Z,7.80
2023-03-24T00:03:36.129Z,8.80
2023-03-24T00:08:36.510Z,8.90
2023-03-24T00:11:06.106Z,9.10
2023-03-24T00:13:37.660Z,9.20
2023-03-24T00:16:11.150Z,8.00
2023-03-24T00:18:38.826Z,9.10
2023-03-24T00:21:10.358Z,8.40
2023-03-24T00:23:37.355Z,8.70
2023-03-24T00:26:14.929Z,10.00
2023-03-24T00:28:45.151Z,9.30
2023-03-24T00:31:15.596Z,7.60
2023-03-24T00:33:43.507Z,10.40
2023-03-24T00:38:41.207Z,7.80
2023-03-24T00:41:08.536Z,8.70
2023-03-24T00:43:36.688Z,9.60
2023-03-24T00:46:07.382Z,9.50
2023-03-24T00:48:41.498Z,9.30
2023-03-24T00:51:10.391Z,9.50
2023-03-24T00:53:43.052Z,10.10
2023-03-24T00:56:15.042Z,10.40
2023-03-24T00:58:42.803Z,9.00
2023-03-24T01:01:10.245Z,9.00
2023-03-24T01:03:50.218Z,9.10
2023-03-24T01:06:18.142Z,8.80
2023-03-24T01:08:45.300Z,8.60
2023-03-24T01:11:14.386Z,9.30
2023-03-24T01:13:42.026Z,10.40
2023-03-24T01:16:09.392Z,9.20
2023-03-24T01:18:40.245Z,9.60
2023-03-24T01:21:11.200Z,9.40
2023-03-24T01:23:38.312Z,7.90
2023-03-24T01:26:07.011Z,8.60
2023-03-24T01:28:39.552Z,10.20
2023-03-24T01:31:08.647Z,9.30
2023-03-24T01:33:36.994Z,10.70
2023-03-24T01:36:04.847Z,10.00
2023-03-24T01:38:32.571Z,8.90
2023-03-24T01:40:59.721Z,12.50
2023-03-24T01:43:30.606Z,9.20
2023-03-24T01:46:20.837Z,9.20
2023-03-24T01:49:06.024Z,10.10
2023-03-24T01:51:36.633Z,8.80
2023-03-24T01:54:30.515Z,9.20
2023-03-24T01:59:33.469Z,9.30
2023-03-24T02:02:21.613Z,9.40
2023-03-24T02:04:59.138Z,9.40
2023-03-24T02:07:57.539Z,10.10
2023-03-24T02:10:24.575Z,8.50
2023-03-24T02:12:51.609Z,10.90
2023-03-24T02:15:21.194Z,12.00
2023-03-24T02:18:09.887Z,9.80
2023-03-24T02:21:11.910Z,10.20
2023-03-24T02:24:15.512Z,11.30
2023-03-24T02:26:48.515Z,10.20
2023-03-24T02:29:31.813Z,9.80
2023-03-24T02:32:20.738Z,9.60
2023-03-24T02:35:17.365Z,9.80
2023-03-24T02:37:55.162Z,9.20
2023-03-24T02:40:49.051Z,11.00
2023-03-24T02:43:25.475Z,9.20
2023-03-24T02:46:13.071Z,10.40
2023-03-24T02:51:59.854Z,10.40
2023-03-24T02:54:47.730Z,8.80
2023-03-24T03:00:47.628Z,8.50
2023-03-24T03:03:44.525Z,8.40
2023-03-24T03:06:23.936Z,9.40
2023-03-24T03:08:51.622Z,9.40
2023-03-24T03:11:18.916Z,9.80
2023-03-24T03:13:52.118Z,10.70
2023-03-24T03:16:25.512Z,9.50
2023-03-24T03:18:58.330Z,10.40
2023-03-24T03:21:29.233Z,9.20
2023-03-24T03:24:16.623Z,11.40
2023-03-24T03:26:45.703Z,10.80
2023-03-24T03:29:16.609Z,9.20
2023-03-24T03:31:49.224Z,9.00
2023-03-24T03:34:34.347Z,9.60
2023-03-24T03:37:22.600Z,8.60
2023-03-24T03:39:53.991Z,12.20
2023-03-24T03:42:21.175Z,11.00
2023-03-24T03:44:48.630Z,9.20
2023-03-24T03:47:18.447Z,8.80
2023-03-24T03:49:45.673Z,9.00
2023-03-24T03:52:14.067Z,9.30
2023-03-24T03:54:42.879Z,12.60
2023-03-24T03:57:10.836Z,11.00
2023-03-24T04:00:19.389Z,8.90
2023-03-24T04:03:44.469Z,9.30
2023-03-24T04:06:43.808Z,10.80
2023-03-24T04:09:35.899Z,9.80
2023-03-24T04:12:12.660Z,8.90
2023-03-24T04:15:01.493Z,10.40
2023-03-24T04:17:43.787Z,9.40
2023-03-24T04:20:46.020Z,11.10
2023-03-24T04:23:39.433Z,15.90
2023-03-24T04:26:09.931Z,10.30
2023-03-24T04:29:22.801Z,9.60
2023-03-24T04:32:04.465Z,10.60
2023-03-24T04:34:34.702Z,9.00
2023-03-24T04:37:14.082Z,10.20
2023-03-24T04:40:05.465Z,14.60
2023-03-24T04:42:37.861Z,9.20
2023-03-24T04:45:05.528Z,11.10
2023-03-24T04:47:58.184Z,9.30
2023-03-24T04:50:39.312Z,9.30
2023-03-24T04:53:10.074Z,10.00
2023-03-24T04:55:50.360Z,9.90
2023-03-24T04:58:29.365Z,10.90
2023-03-24T05:00:58.127Z,9.80
2023-03-24T05:03:25.929Z,9.60
2023-03-24T05:05:57.012Z,11.80
2023-03-24T05:08:23.997Z,9.20
2023-03-24T05:10:51.230Z,10.20
2023-03-24T05:13:18.514Z,8.40
2023-03-24T05:15:54.678Z,10.10
2023-03-24T05:18:34.304Z,8.60
2023-03-24T05:21:03.015Z,9.00
2023-03-24T05:23:30.245Z,13.40
2023-03-24T05:26:02.723Z,8.60
2023-03-24T05:28:31.181Z,10.40
2023-03-24T05:30:58.490Z,8.90
2023-03-24T05:33:45.613Z,9.70
2023-03-24T05:36:15.346Z,10.90
2023-03-24T05:38:43.354Z,10.30
2023-03-24T05:41:10.460Z,8.90
2023-03-24T05:43:39.680Z,12.00
2023-03-24T05:47:32.476Z,10.00
2023-03-24T05:50:01.049Z,10.40
2023-03-24T05:52:31.803Z,8.20
2023-03-24T05:55:12.345Z,9.50
2023-03-24T05:57:43.950Z,12.20
2023-03-24T06:00:23.577Z,9.30
2023-03-24T06:03:18.141Z,9.40
2023-03-24T06:05:53.633Z,10.70
2023-03-24T06:08:22.770Z,11.10
2023-03-24T06:10:53.649Z,10.60
2023-03-24T06:13:23.236Z,11.50
2023-03-24T06:15:54.877Z,9.70
2023-03-24T06:18:52.769Z,9.00
2023-03-24T06:21:41.504Z,8.60
2023-03-24T06:24:15.010Z,8.90
2023-03-24T06:26:44.854Z,10.00
2023-03-24T06:29:13.840Z,9.20
2023-03-24T06:31:42.412Z,9.00
2023-03-24T06:34:10.967Z,8.30
2023-03-24T06:36:40.851Z,8.80
2023-03-24T06:39:09.914Z,9.50
2023-03-24T06:41:39.509Z,9.20
2023-03-24T06:44:10.138Z,8.00
2023-03-24T06:46:40.934Z,8.60
2023-03-24T06:49:09.613Z,13.40
2023-03-24T06:51:38.234Z,9.50
2023-03-24T06:54:08.632Z,8.50
2023-03-24T06:56:37.778Z,9.40
2023-03-24T06:59:07.340Z,7.80
2023-03-24T07:01:36.420Z,9.20
2023-03-24T07:04:29.442Z,8.30
2023-03-24T07:07:19.717Z,11.00
2023-03-24T07:10:22.005Z,7.40
2023-03-24T07:12:51.349Z,12.70
2023-03-24T07:15:20.033Z,9.40
2023-03-24T07:17:55.817Z,8.40
2023-03-24T07:20:46.426Z,9.70
2023-03-24T07:23:21.857Z,9.50
2023-03-24T07:26:08.799Z,11.00
2023-03-24T07:28:46.499Z,11.30
2023-03-24T07:31:18.309Z,9.60
2023-03-24T07:33:48.031Z,10.00
2023-03-24T07:36:17.121Z,9.50
2023-03-24T07:38:45.759Z,9.50
2023-03-24T07:41:19.415Z,9.00
2023-03-24T07:43:52.200Z,9.20
2023-03-24T07:46:25.863Z,8.80
2023-03-24T07:49:03.248Z,11.10
2023-03-24T07:51:39.781Z,10.70
2023-03-24T07:54:35.753Z,8.10
2023-03-24T07:57:04.682Z,9.20
2023-03-24T07:59:34.344Z,9.10
2023-03-24T08:02:19.287Z,12.20
2023-03-24T08:05:18.619Z,10.00
2023-03-24T08:07:54.420Z,8.20
2023-03-24T08:10:28.139Z,9.20
2023-03-24T08:13:02.200Z,9.30
2023-03-24T08:15:30.506Z,8.00
2023-03-24T08:18:04.028Z,9.80
2023-03-24T08:20:34.213Z,9.10
2023-03-24T08:23:05.045Z,7.70
2023-03-24T08:25:34.811Z,7.30
2023-03-24T08:28:03.659Z,9.30
2023-03-24T08:30:32.877Z,7.40
2023-03-24T08:33:02.262Z,10.50
2023-03-24T08:35:35.047Z,7.20
2023-03-24T08:38:06.825Z,9.10
2023-03-24T08:40:37.883Z,6.80
2023-03-24T08:43:10.272Z,7.70
2023-03-24T08:45:38.831Z,8.20
2023-03-24T08:48:08.513Z,10.50
2023-03-24T08:50:41.108Z,8.40
2023-03-24T08:53:11.781Z,7.30
2023-03-24T08:55:43.331Z,12.80
2023-03-24T08:58:18.938Z,10.70
2023-03-24T09:00:48.039Z,9.00
2023-03-24T09:03:22.803Z,8.00
2023-03-24T09:05:57.425Z,10.10
2023-03-24T09:08:26.662Z,10.60
2023-03-24T09:10:55.094Z,10.10
2023-03-24T09:13:25.065Z,10.00
2023-03-24T09:15:55.029Z,12.20
2023-03-24T09:18:23.676Z,8.90
2023-03-24T09:20:54.862Z,11.70
2023-03-24T09:23:23.886Z,12.40
2023-03-24T09:25:53.923Z,11.70
2023-03-24T09:28:24.562Z,11.30
2023-03-24T09:31:04.039Z,10.20
2023-03-24T09:33:34.436Z,10.20
2023-03-24T09:36:03.487Z,9.10
2023-03-24T09:38:35.235Z,9.60
2023-03-24T09:41:04.601Z,9.30
2023-03-24T09:43:44.193Z,9.60
2023-03-24T09:46:38.084Z,8.80
2023-03-24T09:49:11.522Z,7.30
2023-03-24T09:51:44.864Z,7.10
2023-03-24T09:54:19.219Z,7.30
2023-03-24T09:56:51.288Z,6.70
2023-03-24T09:59:29.628Z,5.60
2023-03-24T10:01:59.205Z,6.60
2023-03-24T10:04:28.902Z,8.30
2023-03-24T10:07:08.843Z,6.70
2023-03-24T10:09:37.996Z,7.80
2023-03-24T10:12:22.067Z,6.80
2023-03-24T10:14:56.386Z,7.10
2023-03-24T10:17:30.289Z,5.70
2023-03-24T10:20:43.912Z,6.70
2023-03-24T10:23:31.834Z,6.60
2023-03-24T10:26:27.657Z,6.00
2023-03-24T10:29:02.489Z,6.10
2023-03-24T10:31:32.579Z,9.30
2023-03-24T10:34:01.121Z,7.50
2023-03-24T10:36:31.197Z,6.10
2023-03-24T10:39:03.931Z,5.70
2023-03-24T10:41:42.722Z,7.80
2023-03-24T10:44:12.415Z,7.20
2023-03-24T10:46:47.141Z,5.20
2023-03-24T10:49:20.030Z,5.20
2023-03-24T10:51:51.611Z,6.60
2023-03-24T10:54:22.309Z,6.70
2023-03-24T10:56:59.261Z,6.20
2023-03-24T10:59:46.037Z,8.60
2023-03-24T11:02:18.152Z,5.10
2023-03-24T11:04:58.140Z,4.30
2023-03-24T11:07:37.833Z,5.90
2023-03-24T11:10:08.242Z,4.60
2023-03-24T11:12:39.221Z,4.70
2023-03-24T11:15:22.097Z,4.20
2023-03-24T11:18:14.456Z,6.40
2023-03-24T11:21:08.140Z,5.10
2023-03-24T11:23:42.963Z,5.70
2023-03-24T11:26:15.736Z,4.80
2023-03-24T11:29:04.360Z,3.80
2023-03-24T11:31:38.532Z,4.80
2023-03-24T11:34:10.670Z,3.60
2023-03-24T11:36:46.841Z,3.50
2023-03-24T11:39:19.239Z,4.80
2023-03-24T11:42:05.360Z,5.60
2023-03-24T11:44:40.629Z,5.60
2023-03-24T11:47:29.950Z,3.90
2023-03-24T11:50:07.369Z,4.00
2023-03-24T11:52:49.950Z,6.20
2023-03-24T11:55:29.399Z,6.40
2023-03-24T11:58:10.995Z,3.10
2023-03-24T12:00:48.691Z,3.30
2023-03-24T12:03:36.759Z,3.00
2023-03-24T12:06:38.500Z,6.90
2023-03-24T12:09:32.813Z,4.30
2023-03-24T12:12:27.475Z,3.40
2023-03-24T12:15:09.697Z,3.90
2023-03-24T12:18:17.700Z,4.00
2023-03-24T12:20:48.641Z,3.60
2023-03-24T12:23:33.056Z,3.20
2023-03-24T12:26:18.031Z,4.10
2023-03-24T12:29:06.539Z,3.20
2023-03-24T12:31:44.587Z,5.10
2023-03-24T12:34:33.922Z,4.30
2023-03-24T12:37:06.226Z,3.00
2023-03-24T12:39:37.622Z,3.60
2023-03-24T12:42:11.028Z,3.40
2023-03-24T12:44:46.579Z,5.40
2023-03-24T12:47:30.536Z,3.90
2023-03-24T12:50:11.557Z,3.10
2023-03-24T12:52:43.814Z,2.60
2023-03-24T12:55:18.200Z,3.80
2023-03-24T12:57:54.232Z,4.00
2023-03-24T13:00:28.727Z,3.60
2023-03-24T13:03:01.932Z,7.00
2023-03-24T13:05:32.000Z,5.70
2023-03-24T13:08:03.548Z,4.90
2023-03-24T13:10:40.599Z,3.90
2023-03-24T13:13:11.858Z,3.20
2023-03-24T13:15:42.083Z,3.60
2023-03-24T13:18:11.329Z,3.40
2023-03-24T13:21:00.534Z,3.20
2023-03-24T13:26:42.860Z,3.00
2023-03-24T13:29:11.266Z,8.50
2023-03-24T13:31:43.940Z,4.00
2023-03-24T13:34:39.597Z,2.40
2023-03-24T13:37:22.942Z,2.80
2023-03-24T13:39:58.929Z,3.40
2023-03-24T13:42:33.357Z,2.50
2023-03-24T13:45:03.478Z,2.70
2023-03-24T13:48:02.674Z,3.50
2023-03-24T13:50:32.856Z,4.10
2023-03-24T13:53:06.616Z,3.20
2023-03-24T13:55:37.376Z,4.20
2023-03-24T13:58:13.237Z,2.80
2023-03-24T14:01:09.708Z,6.80
2023-03-24T14:06:09.662Z,3.00
2023-03-24T14:08:48.209Z,4.80
2023-03-24T14:11:32.477Z,5.90
2023-03-24T14:14:14.211Z,3.20
2023-03-24T14:17:07.387Z,3.20
2023-03-24T14:19:40.724Z,3.20
2023-03-24T14:22:36.509Z,2.70
2023-03-24T14:25:18.317Z,3.10
2023-03-24T14:27:48.857Z,2.90
2023-03-24T14:30:23.899Z,2.80
2023-03-24T14:32:55.147Z,3.80
2023-03-24T14:35:35.306Z,4.00
2023-03-24T14:38:24.434Z,3.40
2023-03-24T14:40:57.433Z,3.10
2023-03-24T14:43:30.552Z,3.30
2023-03-24T14:46:03.130Z,3.10
2023-03-24T14:48:51.965Z,2.70
2023-03-24T14:51:36.982Z,3.90
2023-03-24T14:54:17.284Z,3.90
2023-03-24T14:56:47.943Z,3.10
2023-03-24T14:59:44.560Z,3.00
2023-03-24T15:02:37.229Z,5.00
2023-03-24T15:05:15.547Z,3.00
2023-03-24T15:07:46.714Z,3.10
2023-03-24T15:10:16.526Z,3.80
2023-03-24T15:12:45.835Z,3.90
2023-03-24T15:15:24.449Z,3.90
2023-03-24T15:17:54.156Z,3.60
2023-03-24T15:20:24.311Z,3.50
2023-03-24T15:22:56.839Z,3.40
2023-03-24T15:25:28.306Z,3.20
2023-03-24T15:27:58.660Z,2.80
2023-03-24T15:30:28.161Z,3.00
2023-03-24T15:32:57.437Z,3.00
2023-03-24T15:35:25.782Z,3.80
2023-03-24T15:37:56.701Z,3.10
2023-03-24T15:40:31.961Z,3.80
2023-03-24T15:43:03.595Z,4.90
2023-03-24T15:46:11.852Z,4.30
2023-03-24T15:51:11.851Z,3.40
2023-03-24T15:53:49.810Z,3.90
2023-03-24T15:56:24.663Z,3.20
2023-03-24T15:59:06.160Z,5.10
2023-03-24T16:01:39.044Z,3.00
2023-03-24T16:04:17.882Z,3.40
2023-03-24T16:06:53.448Z,3.00
2023-03-24T16:09:27.570Z,5.40
2023-03-24T16:11:57.089Z,3.20
2023-03-24T16:14:28.488Z,4.90
2023-03-24T16:16:59.711Z,3.60
2023-03-24T16:19:29.637Z,4.00
2023-03-24T16:22:02.670Z,6.10
2023-03-24T16:24:32.356Z,3.40
2023-03-24T16:27:01.477Z,7.10
2023-03-24T16:29:33.011Z,4.30
2023-03-24T16:32:01.699Z,5.40
2023-03-24T16:34:31.946Z,7.60
2023-03-24T16:37:00.795Z,6.70
2023-03-24T16:39:30.278Z,6.30
2023-03-24T16:42:01.566Z,5.60
2023-03-24T16:44:31.311Z,7.70
2023-03-24T16:47:00.187Z,6.40
2023-03-24T16:49:29.148Z,7.40
2023-03-24T16:51:57.680Z,10.70
2023-03-24T16:54:32.976Z,8.30
2023-03-24T16:57:01.666Z,10.30
2023-03-24T16:59:30.482Z,11.90
2023-03-24T17:02:03.473Z,10.50
2023-03-24T17:04:34.217Z,12.70
2023-03-24T17:07:05.173Z,10.60
2023-03-24T17:09:36.542Z,10.90
2023-03-24T17:12:05.182Z,13.00
2023-03-24T17:14:33.959Z,12.80
2023-03-24T17:17:04.844Z,10.00
2023-03-24T17:19:33.402Z,13.70
2023-03-24T17:22:06.560Z,11.20
2023-03-24T17:24:38.602Z,8.40
2023-03-24T17:27:16.918Z,8.00
2023-03-24T17:29:46.848Z,8.40
2023-03-24T17:32:15.205Z,9.70
2023-03-24T17:34:45.845Z,9.70
2023-03-24T17:37:15.365Z,11.20
2023-03-24T17:39:44.310Z,17.20
2023-03-24T17:42:14.982Z,14.20
2023-03-24T17:44:45.348Z,19.50
2023-03-24T17:47:21.122Z,15.00
2023-03-24T17:50:09.844Z,14.60
2023-03-24T17:52:41.243Z,11.90
2023-03-24T17:55:10.706Z,16.30
2023-03-24T17:57:39.457Z,16.30
2023-03-24T18:00:12.095Z,13.70
2023-03-24T18:04:01.461Z,16.30
2023-03-24T18:06:33.869Z,13.50
2023-03-24T18:09:02.361Z,13.80
2023-03-24T18:11:31.328Z,15.10
2023-03-24T18:14:01.758Z,13.70
2023-03-24T18:16:31.024Z,13.00
2023-03-24T18:19:01.400Z,14.50
2023-03-24T18:21:35.131Z,17.30
2023-03-24T18:24:04.745Z,15.60
2023-03-24T18:26:33.883Z,15.50
2023-03-24T18:29:03.725Z,21.50
2023-03-24T18:31:33.751Z,15.50
2023-03-24T18:34:03.685Z,17.50
2023-03-24T18:36:34.640Z,17.90
2023-03-24T18:39:05.802Z,16.30
2023-03-24T18:41:38.010Z,15.80
2023-03-24T18:44:17.099Z,22.20
2023-03-24T18:46:49.169Z,18.00
2023-03-24T18:49:18.240Z,14.30
2023-03-24T18:51:47.027Z,18.30
2023-03-24T18:54:16.001Z,11.60
2023-03-24T18:56:44.579Z,13.30
2023-03-24T18:59:16.760Z,15.10
2023-03-24T19:01:48.743Z,15.20
2023-03-24T19:04:17.667Z,17.30
2023-03-24T19:06:47.341Z,18.80
2023-03-24T19:09:20.398Z,23.60
2023-03-24T19:11:49.506Z,17.30
2023-03-24T19:14:17.906Z,22.90
2023-03-24T19:16:46.744Z,16.40
2023-03-24T19:19:18.637Z,13.70
2023-03-24T19:21:47.785Z,14.80
2023-03-24T19:24:17.292Z,10.40
2023-03-24T19:26:45.800Z,11.30
2023-03-24T19:29:14.366Z,11.80
2023-03-24T19:31:42.694Z,11.10
2023-03-24T19:34:11.290Z,11.60
2023-03-24T19:36:45.463Z,10.20
2023-03-24T19:39:15.823Z,10.20
2023-03-24T19:41:44.767Z,9.20
2023-03-24T19:44:13.331Z,10.10
2023-03-24T19:46:42.657Z,8.60
2023-03-24T19:49:11.214Z,11.10
2023-03-24T19:51:39.526Z,8.20
2023-03-24T19:54:07.928Z,9.00
2023-03-24T19:56:36.620Z,10.80
2023-03-24T19:59:06.587Z,9.20
2023-03-24T20:01:35.902Z,10.30
2023-03-24T20:04:04.378Z,9.70
2023-03-24T20:06:35.849Z,10.30
2023-03-24T20:09:05.204Z,9.10
2023-03-24T20:11:33.690Z,9.50
2023-03-24T20:14:02.272Z,9.10
2023-03-24T20:16:30.925Z,12.50
2023-03-24T20:18:59.374Z,10.60
2023-03-24T20:21:33.158Z,9.80
2023-03-24T20:24:02.911Z,12.80
2023-03-24T20:26:35.520Z,11.10
2023-03-24T20:29:04.970Z,8.50
2023-03-24T20:31:33.568Z,10.60
2023-03-24T20:34:03.426Z,8.80
2023-03-24T20:36:32.548Z,7.90
2023-03-24T20:39:07.047Z,12.90
2023-03-24T20:41:36.423Z,10.50
2023-03-24T20:44:05.419Z,12.30
2023-03-24T20:46:33.802Z,11.90
2023-03-24T20:49:02.673Z,14.10
2023-03-24T20:51:31.302Z,15.00
2023-03-24T20:53:59.787Z,14.50
2023-03-24T20:56:28.937Z,14.60
2023-03-24T20:58:57.552Z,17.40
2023-03-24T21:01:26.065Z,26.60
2023-03-24T21:03:55.613Z,37.90
2023-03-24T21:06:29.469Z,27.70
2023-03-24T21:08:59.699Z,26.80
2023-03-24T21:11:31.440Z,19.40
2023-03-24T21:14:00.159Z,17.50
2023-03-24T21:16:29.136Z,14.70
2023-03-24T21:19:02.000Z,13.90
2023-03-24T21:21:30.438Z,14.50
2023-03-24T21:23:58.791Z,13.50
2023-03-24T21:26:27.215Z,15.20
2023-03-24T21:28:55.564Z,16.60
2023-03-24T21:31:32.003Z,21.60
2023-03-24T21:34:01.135Z,28.20
2023-03-24T21:36:33.001Z,28.70
2023-03-24T21:39:07.075Z,28.00
2023-03-24T21:41:39.056Z,20.40
2023-03-24T21:44:13.904Z,16.90
2023-03-24T21:46:43.176Z,19.80
2023-03-24T21:49:11.506Z,13.80
2023-03-24T21:51:43.030Z,13.30
2023-03-24T21:54:15.135Z,12.10
2023-03-24T21:56:43.575Z,12.50
2023-03-24T21:59:12.327Z,13.30
2023-03-24T22:01:42.327Z,15.40
2023-03-24T22:04:11.184Z,13.90
2023-03-24T22:06:39.931Z,14.60
2023-03-24T22:09:10.601Z,13.60
2023-03-24T22:11:43.024Z,14.20
2023-03-24T22:14:19.346Z,14.60
2023-03-24T22:16:49.637Z,13.50
2023-03-24T22:19:18.167Z,12.50
2023-03-24T22:22:02.494Z,10.80
2023-03-24T22:24:32.078Z,10.40
2023-03-24T22:27:01.092Z,10.80
2023-03-24T22:29:29.611Z,12.20
2023-03-24T22:31:57.951Z,10.90
2023-03-24T22:34:28.862Z,12.00
2023-03-24T22:36:57.522Z,12.20
2023-03-24T22:39:26.281Z,9.40
2023-03-24T22:41:57.416Z,8.30
2023-03-24T22:44:26.030Z,9.30
2023-03-24T22:46:59.312Z,10.50
2023-03-24T22:49:33.014Z,8.60
2023-03-24T22:52:01.550Z,8.70
2023-03-24T22:54:36.481Z,9.80
2023-03-24T22:57:05.561Z,8.80
2023-03-24T22:59:39.696Z,7.70
2023-03-24T23:02:10.283Z,12.00
2023-03-24T23:04:40.638Z,10.20
2023-03-24T23:07:10.418Z,9.10
2023-03-24T23:09:43.742Z,8.10
2023-03-24T23:12:13.748Z,8.30
2023-03-24T23:14:42.497Z,8.30
2023-03-24T23:17:10.806Z,9.90
2023-03-24T23:19:39.749Z,9.00
2023-03-24T23:22:08.564Z,8.90
2023-03-24T23:24:39.730Z,8.80
2023-03-24T23:27:08.814Z,8.70
2023-03-24T23:29:40.902Z,9.50
2023-03-24T23:32:09.392Z,10.80
2023-03-24T23:34:38.292Z,12.90
2023-03-24T23:37:06.710Z,10.60
2023-03-24T23:39:38.704Z,9.80
2023-03-24T23:42:07.064Z,9.60
2023-03-24T23:44:38.852Z,10.20
2023-03-24T23:47:07.330Z,13.10
2023-03-24T23:49:35.814Z,12.30
2023-03-24T23:52:04.452Z,12.50
2023-03-24T23:54:32.934Z,14.30
2023-03-24T23:57:01.422Z,12.80
2023-03-24T23:59:30.743Z,14.60
